Time;durP1;ratioP1;P1;durP2;ratioP2;P2;SDS_P1;SDS_P2;PMS_P1;PMS_P2;Temp;Humidity;BMP_temperature;BMP_pressure;BME280_temperature;BME280_humidity;BME280_pressure;Samples;Min_cycle;Max_cycle;Signal;HPM_P1;HPM_P2
2022/05/22 00:00:45;;;;;;;3.17;2.07;;;13.50;99.90;;;;;;4591333;19;20261;-20
2022/05/22 00:02:16;;;;;;;2.95;1.83;;;13.30;99.90;;;;;;4592780;19;20014;-20
2022/05/22 00:03:47;;;;;;;;;;;13.20;99.90;;;;;;4592789;19;20014;-20
2022/05/22 00:05:19;;;;;;;;;;;13.20;99.90;;;;;;4591412;19;19921;-20
2022/05/22 00:06:50;;;;;;;;;;;13.20;99.90;;;;;;4591867;19;19970;-20
2022/05/22 00:08:21;;;;;;;;;;;13.10;99.90;;;;;;4593544;19;19921;-20
2022/05/22 00:09:52;;;;;;;;;;;13.20;99.90;;;;;;4592185;19;19935;-20
2022/05/22 00:11:22;;;;;;;;;;;13.10;99.90;;;;;;4592229;19;20241;-20
2022/05/22 00:12:54;;;;;;;;;;;13.10;99.90;;;;;;4591732;19;19918;-20
2022/05/22 00:14:25;;;;;;;;;;;13.10;99.90;;;;;;4589220;19;19914;-19
2022/05/22 00:17:46;;;;;;;;;;;13.10;99.90;;;;;;4592025;19;20246;-20
2022/05/22 00:19:24;;;;;;;;;;;13.10;99.90;;;;;;4592526;19;19922;-20
2022/05/22 00:20:55;;;;;;;;;;;13.10;99.90;;;;;;4593352;19;20284;-20
2022/05/22 00:22:25;;;;;;;;;;;13.10;99.90;;;;;;4587871;19;19926;-20
2022/05/22 00:23:56;;;;;;;;;;;13.10;99.90;;;;;;4592293;19;19915;-20
2022/05/22 00:25:27;;;;;;;;;;;13.00;99.90;;;;;;4591306;19;19927;-20
2022/05/22 00:27:00;;;;;;;;;;;13.10;99.90;;;;;;4591460;19;19946;-20
2022/05/22 00:28:31;;;;;;;;;;;13.00;99.90;;;;;;4590797;19;19918;-20
2022/05/22 00:30:02;;;;;;;;;;;13.00;99.90;;;;;;4592554;19;19923;-20
2022/05/22 00:31:33;;;;;;;;;;;13.00;99.90;;;;;;4592674;19;19978;-20
2022/05/22 00:33:05;;;;;;;;;;;13.00;99.90;;;;;;4590737;19;19922;-20
2022/05/22 00:34:36;;;;;;;;;;;13.00;99.90;;;;;;4592245;19;20272;-20
2022/05/22 00:36:07;;;;;;;;;;;13.00;99.90;;;;;;4592609;19;19911;-19
2022/05/22 00:37:38;;;;;;;;;;;13.00;99.90;;;;;;4591474;19;20004;-20
2022/05/22 00:39:09;;;;;;;;;;;13.00;99.90;;;;;;4591343;19;19914;-20
2022/05/22 00:40:40;;;;;;;;;;;13.00;99.90;;;;;;4589999;19;19918;-20
2022/05/22 00:42:12;;;;;;;;;;;13.00;99.90;;;;;;4590722;19;19915;-20
2022/05/22 00:43:45;;;;;;;;;;;12.90;99.90;;;;;;4587292;19;19935;-20
2022/05/22 00:45:16;;;;;;;;;;;12.90;99.90;;;;;;4591641;19;19935;-20
2022/05/22 00:46:47;;;;;;;;;;;12.90;99.90;;;;;;4591173;19;19911;-20
2022/05/22 00:48:18;;;;;;;;;;;12.90;99.90;;;;;;4591961;19;19918;-20
2022/05/22 00:49:49;;;;;;;;;;;12.90;99.90;;;;;;4591585;19;19932;-20
2022/05/22 00:51:24;;;;;;;;;;;12.90;99.90;;;;;;4591190;19;19915;-20
2022/05/22 00:52:55;;;;;;;;;;;12.90;99.90;;;;;;4590675;19;20253;-20
2022/05/22 00:54:31;;;;;;;;;;;12.90;99.90;;;;;;4590214;19;19910;-20
2022/05/22 00:56:03;;;;;;;;;;;12.90;99.90;;;;;;4590227;19;19915;-20
2022/05/22 00:57:35;;;;;;;;;;;12.90;99.90;;;;;;4589666;19;20425;-20
2022/05/22 00:59:07;;;;;;;;;;;12.80;99.90;;;;;;4588453;19;19922;-20
2022/05/22 01:00:38;;;;;;;;;;;12.80;99.90;;;;;;4589191;19;19914;-20
2022/05/22 01:02:11;;;;;;;;;;;12.90;99.90;;;;;;4591906;19;20078;-20
2022/05/22 01:03:43;;;;;;;;;;;12.80;99.90;;;;;;4590749;19;19931;-20
2022/05/22 01:05:14;;;;;;;;;;;12.80;99.90;;;;;;4590174;19;19922;-20
2022/05/22 01:06:45;;;;;;;;;;;12.80;99.90;;;;;;4590198;19;19914;-20
2022/05/22 01:08:17;;;;;;;;;;;12.80;99.90;;;;;;4589479;19;19949;-20
2022/05/22 01:09:47;;;;;;;;;;;12.80;99.90;;;;;;4589835;19;20277;-20
2022/05/22 01:11:20;;;;;;;;;;;12.80;99.90;;;;;;4588285;19;19915;-20
2022/05/22 01:12:50;;;;;;;;;;;12.80;99.90;;;;;;4587222;19;19928;-20
2022/05/22 01:14:22;;;;;;;;;;;12.80;99.90;;;;;;4588225;19;19978;-20
2022/05/22 01:15:53;;;;;;;;;;;12.80;99.90;;;;;;4592469;19;19923;-20
2022/05/22 01:17:23;;;;;;;;;;;12.80;99.90;;;;;;4590467;19;19957;-20
2022/05/22 01:18:55;;;;;;;;;;;12.80;99.90;;;;;;4590223;19;19922;-20
2022/05/22 01:20:26;;;;;;;;;;;12.70;99.90;;;;;;4590623;19;20246;-20
2022/05/22 01:22:00;;;;;;;;;;;12.80;99.90;;;;;;4589957;19;19929;-20
2022/05/22 01:23:31;;;;;;;;;;;12.70;99.90;;;;;;4590745;19;19919;-20
2022/05/22 01:25:03;;;;;;;;;;;12.70;99.90;;;;;;4589855;19;19950;-20
2022/05/22 01:26:34;;;;;;;;;;;12.70;99.90;;;;;;4588479;19;20328;-20
2022/05/22 01:28:05;;;;;;;;;;;12.70;99.90;;;;;;4589102;19;19915;-20
2022/05/22 01:29:35;;;;;;;;;;;12.70;99.90;;;;;;4588512;19;19922;-20
2022/05/22 01:31:06;;;;;;;;;;;12.70;99.90;;;;;;4591412;19;19923;-20
2022/05/22 01:32:38;;;;;;;;;;;12.70;99.90;;;;;;4589848;19;19914;-20
2022/05/22 01:34:09;;;;;;;;;;;12.70;99.90;;;;;;4590962;19;20340;-20
2022/05/22 01:35:40;;;;;;;;;;;12.70;99.90;;;;;;4589421;19;19915;-19
2022/05/22 01:37:11;;;;;;;;;;;12.70;99.90;;;;;;4588832;19;19927;-19
2022/05/22 01:38:42;;;;;;;;;;;12.70;99.90;;;;;;4589205;19;20000;-20
2022/05/22 01:40:14;;;;;;;;;;;12.70;99.90;;;;;;4589695;19;19906;-20
2022/05/22 01:41:45;;;;;;;;;;;12.80;99.90;;;;;;4588963;19;19926;-20
2022/05/22 01:43:16;;;;;;;;;;;13.30;99.90;;;;;;4589122;19;19921;-20
2022/05/22 01:44:47;;;;;;;;;;;13.80;99.90;;;;;;4591799;19;19954;-20
2022/05/22 01:46:18;;;;;;;;;;;14.10;99.90;;;;;;4590751;19;19922;-20
2022/05/22 01:47:49;;;;;;;3.67;2.37;;;14.40;99.90;;;;;;4588991;19;19943;-21
2022/05/22 01:49:20;;;;;;;3.33;2.00;;;14.60;99.90;;;;;;4587565;19;20468;-20
2022/05/22 01:50:51;;;;;;;;;;;14.80;99.90;;;;;;4588968;19;20018;-21
2022/05/22 01:52:22;;;;;;;;;;;14.90;99.90;;;;;;4587913;19;19915;-21
2022/05/22 01:53:53;;;;;;;;;;;15.10;99.90;;;;;;4588233;19;19919;-21
2022/05/22 01:55:24;;;;;;;;;;;15.20;99.90;;;;;;4590803;19;19923;-20
2022/05/22 01:56:55;;;;;;;;;;;15.30;99.90;;;;;;4595481;19;20304;-21
2022/05/22 01:58:26;;;;;;;2.55;1.80;;;15.40;99.90;;;;;;4594684;19;19911;-21
2022/05/22 01:59:57;;;;;;;2.95;1.80;;;15.50;99.90;;;;;;4593947;19;20014;-21
2022/05/22 02:01:28;;;;;;;3.00;1.90;;;15.50;99.90;;;;;;4592772;19;20018;-21
2022/05/22 02:02:59;;;;;;;;;;;15.60;99.90;;;;;;4594142;19;20014;-20
2022/05/22 02:04:30;;;;;;;;;;;15.60;99.90;;;;;;4592105;19;20344;-20
2022/05/22 02:06:01;;;;;;;;;;;15.70;99.90;;;;;;4592464;19;19990;-21
2022/05/22 02:09:22;;;;;;;;;;;15.80;99.90;;;;;;4595407;19;19919;-21
2022/05/22 02:10:54;;;;;;;;;;;15.90;99.90;;;;;;4594717;19;20325;-21
2022/05/22 02:12:25;;;;;;;;;;;15.90;99.90;;;;;;4593492;19;20230;-21
2022/05/22 02:13:56;;;;;;;;;;;15.90;99.90;;;;;;4593458;19;19978;-21
2022/05/22 02:15:27;;;;;;;;;;;16.00;99.90;;;;;;4594703;19;19933;-21
2022/05/22 02:16:58;;;;;;;;;;;16.00;99.90;;;;;;4593713;19;19922;-21
2022/05/22 02:18:29;;;;;;;;;;;16.00;99.90;;;;;;4594508;19;19917;-20
2022/05/22 02:20:00;;;;;;;;;;;16.10;99.90;;;;;;4594390;19;20008;-21
2022/05/22 02:21:32;;;;;;;;;;;16.10;99.90;;;;;;4595017;19;19935;-21
2022/05/22 02:23:02;;;;;;;;;;;16.10;99.90;;;;;;4592937;19;20329;-21
2022/05/22 02:24:33;;;;;;;;;;;16.10;99.90;;;;;;4594833;19;19915;-21
2022/05/22 02:26:07;;;;;;;;;;;16.20;99.90;;;;;;4594819;19;19921;-21
2022/05/22 02:27:38;;;;;;;;;;;16.20;99.90;;;;;;4594444;19;19982;-21
2022/05/22 02:29:09;;;;;;;;;;;16.20;99.90;;;;;;4594690;19;19910;-21
2022/05/22 02:30:41;;;;;;;;;;;16.20;99.90;;;;;;4593472;19;20328;-21
2022/05/22 02:32:12;;;;;;;;;;;16.20;99.90;;;;;;4593346;19;19932;-20
2022/05/22 02:33:43;;;;;;;;;;;16.30;99.90;;;;;;4593844;19;19918;-21
2022/05/22 02:35:14;;;;;;;;;;;16.30;99.90;;;;;;4594292;19;19942;-21
2022/05/22 02:36:45;;;;;;;;;;;16.30;99.90;;;;;;4593649;19;19911;-21
2022/05/22 02:38:16;;;;;;;;;;;16.30;99.90;;;;;;4594297;19;19960;-21
2022/05/22 02:39:48;;;;;;;;;;;16.30;99.90;;;;;;4594408;19;19914;-21
2022/05/22 02:41:20;;;;;;;;;;;16.30;99.90;;;;;;4594960;19;19926;-21
2022/05/22 02:42:51;;;;;;;;;;;16.30;99.90;;;;;;4595064;19;19919;-21
2022/05/22 02:44:22;;;;;;;;;;;16.30;99.90;;;;;;4594666;19;19942;-21
2022/05/22 02:45:54;;;;;;;;;;;16.30;99.90;;;;;;4593877;19;20305;-21
2022/05/22 02:47:25;;;;;;;;;;;16.30;99.90;;;;;;4594724;19;19915;-21
2022/05/22 02:48:56;;;;;;;;;;;16.30;99.90;;;;;;4593908;19;19919;-21
2022/05/22 02:50:28;;;;;;;;;;;16.40;99.90;;;;;;4593689;19;19970;-21
2022/05/22 02:51:59;;;;;;;;;;;16.40;99.90;;;;;;4594161;19;19986;-21
2022/05/22 02:53:30;;;;;;;;;;;16.40;99.90;;;;;;4594659;19;19915;-21
2022/05/22 02:55:01;;;;;;;;;;;16.50;99.90;;;;;;4592088;19;19926;-21
2022/05/22 02:56:32;;;;;;;;;;;16.50;99.90;;;;;;4593673;19;19914;-21
2022/05/22 02:58:03;;;;;;;;;;;16.50;99.90;;;;;;4593026;19;20244;-21
2022/05/22 02:59:34;;;;;;;;;;;16.50;99.90;;;;;;4593790;19;19918;-21
2022/05/22 03:01:05;;;;;;;;;;;16.50;99.90;;;;;;4594911;19;19972;-21
2022/05/22 03:02:36;;;;;;;;;;;16.50;99.90;;;;;;4594178;19;19918;-21
2022/05/22 03:04:07;;;;;;;;;;;16.50;99.90;;;;;;4594358;19;19982;-21
2022/05/22 03:07:27;;;;;;;;;;;16.50;99.90;;;;;;4590644;19;19971;-21
2022/05/22 03:08:58;;;;;;;;;;;16.50;99.90;;;;;;4593669;19;19919;-21
2022/05/22 03:10:29;;;;;;;;;;;16.60;99.90;;;;;;4593978;19;19919;-21
2022/05/22 03:12:10;;;;;;;;;;;16.60;99.90;;;;;;4593851;19;20265;-20
2022/05/22 03:13:41;;;;;;;;;;;16.60;99.90;;;;;;4594042;19;19911;-21
2022/05/22 03:15:12;;;;;;;;;;;16.60;99.90;;;;;;4593439;19;19919;-21
2022/05/22 03:16:43;;;;;;;;;;;16.60;99.90;;;;;;4593605;19;19919;-20
2022/05/22 03:18:14;;;;;;;;;;;16.60;99.90;;;;;;4594188;19;19921;-21
2022/05/22 03:19:45;;;;;;;;;;;16.60;99.90;;;;;;4594492;19;20349;-21
2022/05/22 03:21:16;;;;;;;;;;;16.60;99.90;;;;;;4593823;19;19955;-21
2022/05/22 03:22:47;;;;;;;;;;;16.60;99.90;;;;;;4592620;19;19987;-21
2022/05/22 03:24:18;;;;;;;;;;;16.60;99.90;;;;;;4593711;19;19922;-21
2022/05/22 03:25:49;;;;;;;;;;;16.60;99.90;;;;;;4592650;19;19910;-21
2022/05/22 03:27:20;;;;;;;;;;;16.70;99.90;;;;;;4592740;19;19917;-21
2022/05/22 03:28:51;;;;;;;;;;;16.70;99.90;;;;;;4593902;19;19910;-21
2022/05/22 03:30:22;;;;;;;;;;;16.60;99.90;;;;;;4594008;19;19930;-21
2022/05/22 03:31:53;;;;;;;;;;;16.70;99.90;;;;;;4593465;19;20017;-21
2022/05/22 03:33:24;;;;;;;;;;;16.70;99.90;;;;;;4593161;19;19922;-21
2022/05/22 03:34:55;;;;;;;;;;;16.70;99.90;;;;;;4593748;19;19918;-21
2022/05/22 03:36:26;;;;;;;;;;;16.70;99.90;;;;;;4593617;19;19919;-21
2022/05/22 03:37:57;;;;;;;;;;;16.70;99.90;;;;;;4593247;19;20118;-21
2022/05/22 03:39:28;;;;;;;;;;;16.70;99.90;;;;;;4593518;19;20294;-21
2022/05/22 03:40:59;;;;;;;;;;;16.70;99.90;;;;;;4592774;19;19996;-21
2022/05/22 03:42:30;;;;;;;;;;;16.70;99.90;;;;;;4593119;19;19910;-21
2022/05/22 03:44:01;;;;;;;;;;;16.70;99.90;;;;;;4593510;19;19921;-21
2022/05/22 03:45:32;;;;;;;;;;;16.70;99.90;;;;;;4592491;19;20011;-21
2022/05/22 03:47:03;;;;;;;;;;;16.70;99.90;;;;;;4593735;19;19988;-21
2022/05/22 03:48:34;;;;;;;;;;;16.80;99.90;;;;;;4593150;19;19921;-21
2022/05/22 03:50:09;;;;;;;;;;;16.70;99.90;;;;;;4593350;19;19978;-21
2022/05/22 03:51:40;;;;;;;;;;;16.80;99.90;;;;;;4593021;19;19915;-21
2022/05/22 03:53:11;;;;;;;;;;;16.70;99.90;;;;;;4593533;19;19919;-21
2022/05/22 03:54:42;;;;;;;;;;;16.70;99.90;;;;;;4591840;19;19930;-21
2022/05/22 03:56:14;;;;;;;;;;;16.70;99.90;;;;;;4588541;19;19919;-21
2022/05/22 03:57:45;;;;;;;;;;;16.70;99.90;;;;;;4590757;19;19915;-21
2022/05/22 03:59:16;;;;;;;;;;;16.70;99.90;;;;;;4591544;19;20396;-21
2022/05/22 04:00:47;;;;;;;;;;;16.70;99.90;;;;;;4592139;19;19925;-21
2022/05/22 04:02:18;;;;;;;;;;;16.80;99.90;;;;;;4593229;19;19970;-21
2022/05/22 04:03:49;;;;;;;;;;;16.80;99.90;;;;;;4593344;19;19907;-21
2022/05/22 04:05:20;;;;;;;;;;;16.90;99.90;;;;;;4592694;19;19914;-21
2022/05/22 04:06:51;;;;;;;;;;;16.90;99.90;;;;;;4591703;19;19930;-21
2022/05/22 04:08:22;;;;;;;;;;;16.90;99.90;;;;;;4593012;19;19918;-21
2022/05/22 04:09:53;;;;;;;;;;;16.90;99.90;;;;;;4591440;19;19950;-21
2022/05/22 04:11:24;;;;;;;;;;;16.90;99.90;;;;;;4591011;19;19914;-21
2022/05/22 04:12:55;;;;;;;;;;;16.90;99.90;;;;;;4591366;19;19949;-21
2022/05/22 04:14:26;;;;;;;;;;;16.90;99.90;;;;;;4592037;19;20253;-21
2022/05/22 04:15:57;;;;;;;;;;;16.90;99.90;;;;;;4589667;19;20649;-21
2022/05/22 04:17:28;;;;;;;;;;;16.90;99.90;;;;;;4590737;19;20238;-21
2022/05/22 04:18:58;;;;;;;;;;;16.90;99.90;;;;;;4592129;19;19929;-21
2022/05/22 04:20:29;;;;;;;;;;;16.90;99.90;;;;;;4591028;19;19918;-21
2022/05/22 04:22:00;;;;;;;;;;;16.80;99.90;;;;;;4590755;19;20345;-21
2022/05/22 04:25:21;;;;;;;;;;;16.80;99.90;;;;;;4591727;19;20260;-21
2022/05/22 04:26:52;;;;;;;;;;;16.80;99.90;;;;;;4591772;19;19918;-21
2022/05/22 04:28:23;;;;;;;;;;;16.80;99.90;;;;;;4591695;19;19917;-21
2022/05/22 04:29:55;;;;;;;;;;;16.80;99.90;;;;;;4590393;19;19936;-21
2022/05/22 04:31:25;;;;;;;;;;;16.80;99.90;;;;;;4592156;19;20249;-21
2022/05/22 04:32:56;;;;;;;;;;;16.80;99.90;;;;;;4593037;19;19915;-21
2022/05/22 04:34:28;;;;;;;;;;;16.70;99.90;;;;;;4591811;19;20083;-21
2022/05/22 04:35:59;;;;;;;;;;;16.80;99.90;;;;;;4588133;19;20255;-21
2022/05/22 04:37:30;;;;;;;;;;;16.80;99.90;;;;;;4590920;19;19919;-21
2022/05/22 04:39:01;;;;;;;;;;;16.80;99.90;;;;;;4591100;19;19919;-21
2022/05/22 04:40:32;;;;;;;;;;;16.80;99.90;;;;;;4591693;19;19926;-21
2022/05/22 04:42:03;;;;;;;;;;;16.80;99.90;;;;;;4592318;19;19990;-21
2022/05/22 04:43:34;;;;;;;;;;;16.80;99.90;;;;;;4592201;19;20326;-21
2022/05/22 04:45:05;;;;;;;;;;;16.80;99.90;;;;;;4591847;19;19919;-21
2022/05/22 04:46:36;;;;;;;;;;;16.80;99.90;;;;;;4590168;19;19917;-21
2022/05/22 04:48:07;;;;;;;;;;;16.90;99.90;;;;;;4592147;19;20097;-21
2022/05/22 04:49:38;;;;;;;;;;;16.90;99.90;;;;;;4592429;19;19910;-21
2022/05/22 04:51:09;;;;;;;;;;;16.90;99.90;;;;;;4589252;19;19922;-21
2022/05/22 04:52:40;;;;;;;;;;;16.90;99.90;;;;;;4590524;19;20327;-21
2022/05/22 04:54:11;;;;;;;;;;;16.90;99.90;;;;;;4592148;19;19974;-21
2022/05/22 04:55:42;;;;;;;;;;;16.90;99.90;;;;;;4591171;19;19926;-21
2022/05/22 04:57:13;;;;;;;;;;;16.90;99.90;;;;;;4590430;19;19915;-21
2022/05/22 04:58:44;;;;;;;;;;;17.00;99.90;;;;;;4591555;19;19915;-21
2022/05/22 05:00:15;;;;;;;;;;;17.00;99.90;;;;;;4591674;19;19992;-21
2022/05/22 05:01:46;;;;;;;;;;;17.00;99.90;;;;;;4591323;19;19938;-21
2022/05/22 05:03:17;;;;;;;;;;;17.00;99.90;;;;;;4591425;19;20288;-21
2022/05/22 05:04:48;;;;;;;;;;;17.00;99.90;;;;;;4592923;19;20288;-21
2022/05/22 05:06:19;;;;;;;;;;;17.00;99.90;;;;;;4589638;19;19993;-21
2022/05/22 05:07:50;;;;;;;;;;;17.10;99.90;;;;;;4589433;19;20357;-21
2022/05/22 05:09:21;;;;;;;;;;;17.10;99.90;;;;;;4591189;19;19910;-21
2022/05/22 05:10:52;;;;;;;;;;;17.20;99.90;;;;;;4591202;19;20340;-21
2022/05/22 05:12:23;;;;;;;;;;;17.20;99.90;;;;;;4591744;19;19993;-20
2022/05/22 05:13:54;;;;;;;;;;;17.10;99.90;;;;;;4590918;19;19911;-21
2022/05/22 05:15:25;;;;;;;;;;;17.00;99.90;;;;;;4590161;19;19936;-21
2022/05/22 05:16:56;;;;;;;;;;;17.00;99.90;;;;;;4590794;19;19939;-21
2022/05/22 05:18:27;;;;;;;;;;;17.10;99.90;;;;;;4590344;19;19922;-21
2022/05/22 05:19:58;;;;;;;;;;;17.20;99.90;;;;;;4590334;19;20337;-21
2022/05/22 05:21:29;;;;;;;;;;;17.30;99.90;;;;;;4591564;19;19918;-21
2022/05/22 05:23:03;;;;;;;;;;;17.30;99.90;;;;;;4590589;19;19929;-21
2022/05/22 05:24:34;;;;;;;;;;;17.50;99.90;;;;;;4591063;19;19919;-21
2022/05/22 05:26:05;;;;;;;;;;;17.50;99.90;;;;;;4590659;19;19982;-21
2022/05/22 05:27:36;;;;;;;;;;;17.50;99.90;;;;;;4590769;19;20249;-21
2022/05/22 05:29:07;;;;;;;;;;;17.50;99.90;;;;;;4590389;19;19922;-21
2022/05/22 05:30:38;;;;;;;;;;;17.50;99.90;;;;;;4588083;19;19911;-21
2022/05/22 05:32:09;;;;;;;;;;;17.50;99.90;;;;;;4590157;19;19926;-21
2022/05/22 05:33:40;;;;;;;;;;;17.50;99.90;;;;;;4590771;19;19919;-21
2022/05/22 05:35:11;;;;;;;;;;;17.50;99.90;;;;;;4587348;19;19948;-21
2022/05/22 05:36:42;;;;;;;;;;;17.50;99.90;;;;;;4590007;19;19926;-21
2022/05/22 05:38:13;;;;;;;;;;;17.50;99.90;;;;;;4589612;19;19923;-21
2022/05/22 05:39:44;;;;;;;;;;;17.60;99.90;;;;;;4590670;19;19919;-21
2022/05/22 05:41:15;;;;;;;;;;;17.60;99.90;;;;;;4590174;19;19919;-21
2022/05/22 05:42:48;;;;;;;;;;;17.50;99.90;;;;;;4588358;19;20474;-21
2022/05/22 05:46:27;;;;;;;;;;;17.40;99.90;;;;;;4589559;19;20406;-21
2022/05/22 05:47:59;;;;;;;;;;;17.90;99.90;;;;;;4589921;19;19974;-21
2022/05/22 05:49:29;;;;;;;;;;;17.90;99.90;;;;;;4588856;19;19930;-21
2022/05/22 05:51:01;;;;;;;;;;;17.70;99.90;;;;;;4586618;19;20333;-21
2022/05/22 05:52:32;;;;;;;;;;;17.70;99.90;;;;;;4586947;19;19926;-21
2022/05/22 05:54:03;;;;;;;;;;;17.80;99.90;;;;;;4586498;19;19918;-21
2022/05/22 05:55:34;;;;;;;;;;;17.80;99.90;;;;;;4587111;19;19919;-21
2022/05/22 05:57:05;;;;;;;;;;;17.80;99.90;;;;;;4591180;19;19911;-21
2022/05/22 05:58:36;;;;;;;;;;;18.00;99.90;;;;;;4591260;19;19953;-20
2022/05/22 06:00:08;;;;;;;;;;;17.80;99.90;;;;;;4590506;19;19910;-21
2022/05/22 06:01:39;;;;;;;;;;;17.70;99.90;;;;;;4590521;19;19915;-21
2022/05/22 06:03:09;;;;;;;;;;;17.60;99.90;;;;;;4590375;19;20359;-21
2022/05/22 06:04:41;;;;;;;;;;;17.50;99.90;;;;;;4589835;19;20373;-21
2022/05/22 06:06:12;;;;;;;;;;;17.50;99.90;;;;;;4588891;19;20235;-21
2022/05/22 06:07:48;;;;;;;;;;;17.50;99.90;;;;;;4589024;19;19956;-20
2022/05/22 06:09:18;;;;;;;;;;;17.50;99.90;;;;;;4590966;19;19919;-21
2022/05/22 06:10:52;;;;;;;;;;;17.50;99.90;;;;;;4589737;19;19914;-21
2022/05/22 06:12:24;;;;;;;;;;;17.40;99.90;;;;;;4589646;19;19918;-21
2022/05/22 06:13:55;;;;;;;;;;;17.40;99.90;;;;;;4588495;19;19958;-21
2022/05/22 06:15:25;;;;;;;;;;;17.60;99.90;;;;;;4589611;19;19918;-21
2022/05/22 06:16:56;;;;;;;;;;;17.70;99.90;;;;;;4589296;19;19918;-21
2022/05/22 06:18:28;;;;;;;;;;;17.60;99.90;;;;;;4587485;19;19919;-21
2022/05/22 06:19:59;;;;;;;;;;;17.60;99.90;;;;;;4588114;19;20334;-21
2022/05/22 06:21:30;;;;;;;;;;;17.60;99.90;;;;;;4588283;19;20333;-21
2022/05/22 06:23:01;;;;;;;;;;;17.50;99.90;;;;;;4587492;19;19926;-21
2022/05/22 06:24:35;;;;;;;;;;;17.50;99.90;;;;;;4590856;19;19974;-21
2022/05/22 06:26:07;;;;;;;;;;;17.50;99.90;;;;;;4588780;19;19926;-21
2022/05/22 06:27:38;;;;;;;;;;;17.50;99.90;;;;;;4587795;19;19977;-21
2022/05/22 06:29:09;;;;;;;;;;;17.40;99.90;;;;;;4587179;19;20361;-21
2022/05/22 06:30:40;;;;;;;;;;;17.40;99.90;;;;;;4587397;19;19950;-21
2022/05/22 06:32:11;;;;;;;;;;;17.40;99.90;;;;;;4588351;19;20325;-21
2022/05/22 06:33:42;;;;;;;;;;;17.50;99.90;;;;;;4588501;19;20315;-20
2022/05/22 06:35:13;;;;;;;;;;;17.50;99.90;;;;;;4587057;19;19982;-21
2022/05/22 06:36:44;;;;;;;;;;;17.50;99.90;;;;;;4588629;19;19914;-21
2022/05/22 06:40:05;;;;;;;;;;;17.40;99.90;;;;;;4590138;19;19952;-21
2022/05/22 06:41:37;;;;;;;;;;;17.40;99.90;;;;;;4591732;19;19922;-21
2022/05/22 06:43:09;;;;;;;;;;;17.30;99.90;;;;;;4592707;19;20236;-21
2022/05/22 06:44:39;;;;;;;;;;;17.40;99.90;;;;;;4590211;19;19911;-21
2022/05/22 06:46:10;;;;;;;;;;;17.40;99.90;;;;;;4589993;19;19964;-21
2022/05/22 06:47:42;;;;;;;;;;;17.40;99.90;;;;;;4592591;19;19915;-20
2022/05/22 06:49:13;;;;;;;;;;;17.40;99.90;;;;;;4592781;19;19926;-20
2022/05/22 06:50:44;;;;;;;;;;;17.50;99.90;;;;;;4592243;19;19926;-21
2022/05/22 06:52:15;;;;;;;;;;;17.50;99.90;;;;;;4593127;19;19915;-21
2022/05/22 06:53:46;;;;;;;;;;;17.60;99.90;;;;;;4593007;19;19948;-21
2022/05/22 06:55:17;;;;;;;;;;;17.80;99.90;;;;;;4590758;19;19945;-21
2022/05/22 06:56:48;;;;;;;;;;;17.90;99.90;;;;;;4591713;19;19914;-21
2022/05/22 06:58:18;;;;;;;;;;;17.90;99.90;;;;;;4590398;19;19927;-21
2022/05/22 06:59:51;;;;;;;;;;;17.80;99.90;;;;;;4591683;19;19915;-21
2022/05/22 07:01:24;;;;;;;;;;;17.80;99.90;;;;;;4592738;19;19935;-21
2022/05/22 07:02:55;;;;;;;;;;;17.80;99.90;;;;;;4593174;19;19911;-21
2022/05/22 07:04:26;;;;;;;;;;;17.80;99.90;;;;;;4591360;19;19915;-21
2022/05/22 07:05:57;;;;;;;;;;;17.80;99.90;;;;;;4591133;19;20341;-21
2022/05/22 07:07:28;;;;;;;;;;;17.90;99.90;;;;;;4591592;19;20037;-21
2022/05/22 07:08:59;;;;;;;;;;;17.90;99.90;;;;;;4591500;19;20399;-21
2022/05/22 07:12:19;;;;;;;;;;;17.90;99.90;;;;;;4590373;19;19930;-20
2022/05/22 07:13:50;;;;;;;;;;;17.90;99.90;;;;;;4592060;19;20027;-21
2022/05/22 07:15:21;;;;;;;;;;;17.90;99.90;;;;;;4591840;19;19997;-21
2022/05/22 07:16:52;;;;;;;;;;;17.80;99.90;;;;;;4593056;19;19911;-21
2022/05/22 07:18:23;;;;;;;;;;;17.80;99.90;;;;;;4593204;19;20241;-21
2022/05/22 07:19:54;;;;;;;;;;;17.80;99.90;;;;;;4592372;19;19978;-21
2022/05/22 07:21:25;;;;;;;;;;;17.80;99.90;;;;;;4592367;19;20449;-21
2022/05/22 07:22:56;;;;;;;;;;;17.80;99.90;;;;;;4590443;19;19921;-21
2022/05/22 07:24:27;;;;;;;;;;;18.00;99.90;;;;;;4595086;19;19935;-21
2022/05/22 07:25:58;;;;;;;;;;;18.00;99.90;;;;;;4595629;19;20329;-21
2022/05/22 07:27:29;;;;;;;;;;;18.10;99.90;;;;;;4594886;19;19917;-21
2022/05/22 07:29:01;;;;;;;;;;;18.10;99.90;;;;;;4595666;19;19931;-20
2022/05/22 07:30:32;;;;;;;;;;;18.10;99.90;;;;;;4595897;19;19942;-21
2022/05/22 07:32:04;;;;;;;;;;;18.30;99.90;;;;;;4594396;19;19946;-21
2022/05/22 07:33:35;;;;;;;;;;;18.30;99.90;;;;;;4592825;19;20345;-21
2022/05/22 07:35:06;;;;;;;;;;;18.20;99.90;;;;;;4593626;19;19939;-21
2022/05/22 07:36:37;;;;;;;;;;;18.50;99.90;;;;;;4592945;19;19915;-21
2022/05/22 07:38:08;;;;;;;;;;;18.50;99.90;;;;;;4593251;19;19918;-21
2022/05/22 07:39:39;;;;;;;;;;;18.30;99.90;;;;;;4593150;19;19911;-20
2022/05/22 07:41:10;;;;;;;;;;;18.20;99.90;;;;;;4592969;19;19915;-21
2022/05/22 07:42:41;;;;;;;;;;;18.10;99.90;;;;;;4593551;19;20350;-21
2022/05/22 07:44:12;;;;;;;2.88;1.42;;;17.80;99.90;;;;;;4589203;19;19919;-21
2022/05/22 07:45:43;;;;;;;1.75;0.98;;;17.30;99.90;;;;;;4591888;19;20011;-21
2022/05/22 07:47:14;;;;;;;1.75;1.15;;;17.00;99.90;;;;;;4592167;19;20003;-21
2022/05/22 07:48:45;;;;;;;3.53;1.55;;;16.90;99.90;;;;;;4590908;19;20341;-21
2022/05/22 07:50:20;;;;;;;1.80;1.05;;;16.80;99.90;;;;;;4591433;19;20015;-21
2022/05/22 07:51:51;;;;;;;1.38;0.73;;;16.60;99.90;;;;;;4591168;19;20082;-21
2022/05/22 07:53:22;;;;;;;1.23;0.70;;;16.50;99.90;;;;;;4590048;19;20014;-21
2022/05/22 07:54:55;;;;;;;0.93;0.60;;;16.60;99.90;;;;;;4591976;19;20028;-21
2022/05/22 07:56:26;;;;;;;2.45;1.08;;;16.60;99.90;;;;;;4590652;19;20019;-21
2022/05/22 07:57:57;;;;;;;2.40;0.80;;;16.50;99.90;;;;;;4589804;19;20025;-21
2022/05/22 07:59:28;;;;;;;1.83;0.90;;;16.60;99.90;;;;;;4591241;19;19998;-21
2022/05/22 08:01:00;;;;;;;;;;;16.60;99.90;;;;;;4592142;19;20010;-21
2022/05/22 08:02:31;;;;;;;;;;;17.00;99.90;;;;;;4592233;19;19922;-21
2022/05/22 08:04:01;;;;;;;;;;;17.40;99.90;;;;;;4589456;19;19926;-21
2022/05/22 08:05:32;;;;;;;;;;;15.60;99.90;;;;;;4591377;19;19931;-20
2022/05/22 08:07:03;;;;;;;1.67;0.90;;;14.70;99.90;;;;;;4590572;19;19911;-20
2022/05/22 08:08:34;;;;;;;;;;;14.40;99.90;;;;;;4592829;19;20010;-20
2022/05/22 08:10:06;;;;;;;;;;;14.30;99.90;;;;;;4593276;19;19918;-20
2022/05/22 08:11:37;;;;;;;;;;;14.30;99.90;;;;;;4591656;19;19919;-20
2022/05/22 08:13:08;;;;;;;;;;;14.30;99.90;;;;;;4592129;19;19975;-20
2022/05/22 08:14:40;;;;;;;;;;;14.20;99.90;;;;;;4592436;19;19993;-20
2022/05/22 08:16:10;;;;;;;1.03;0.67;;;14.30;99.90;;;;;;4591277;19;20230;-20
2022/05/22 08:17:41;;;;;;;1.73;0.80;;;14.30;99.90;;;;;;4591504;19;20027;-20
2022/05/22 08:19:12;;;;;;;1.25;1.00;;;14.40;99.90;;;;;;4590402;19;20007;-20
2022/05/22 08:20:44;;;;;;;2.92;1.10;;;14.40;99.90;;;;;;4591137;19;20017;-20
2022/05/22 08:22:15;;;;;;;3.08;0.90;;;14.40;99.90;;;;;;4591631;19;20011;-20
2022/05/22 08:23:46;;;;;;;2.20;1.10;;;14.40;99.90;;;;;;4591346;19;20091;-20
2022/05/22 08:25:18;;;;;;;1.60;1.05;;;14.50;99.90;;;;;;4591771;19;20010;-20
2022/05/22 08:26:49;;;;;;;1.25;0.88;;;14.50;99.90;;;;;;4590606;19;20011;-20
2022/05/22 08:28:20;;;;;;;1.58;0.93;;;14.60;99.90;;;;;;4591652;19;20349;-20
2022/05/22 08:29:51;;;;;;;1.20;0.93;;;14.70;99.90;;;;;;4590248;19;20015;-20
2022/05/22 08:31:22;;;;;;;1.90;0.88;;;14.70;99.90;;;;;;4591047;19;20017;-20
2022/05/22 08:32:54;;;;;;;1.75;1.08;;;14.70;99.90;;;;;;4590289;19;20002;-20
2022/05/22 08:34:25;;;;;;;;;;;14.80;99.90;;;;;;4592487;19;19998;-20
2022/05/22 08:35:56;;;;;;;1.73;0.87;;;14.80;99.90;;;;;;4591202;19;20325;-20
2022/05/22 08:37:27;;;;;;;1.10;0.70;;;14.80;99.90;;;;;;4591295;19;20027;-20
2022/05/22 08:38:59;;;;;;;2.65;1.05;;;14.80;99.90;;;;;;4592030;19;20070;-20
2022/05/22 08:40:48;;;;;;;1.52;0.90;;;14.70;99.90;;;;;;4590998;19;20403;-20
2022/05/22 08:42:23;;;;;;;1.10;0.80;;;14.70;99.90;;;;;;4590060;19;20017;-20
2022/05/22 08:44:14;;;;;;;1.90;1.00;;;14.60;99.90;;;;;;4589982;19;20123;-20
2022/05/22 08:45:50;;;;;;;1.52;1.00;;;14.60;99.90;;;;;;4591199;19;20089;-20
2022/05/22 08:47:31;;;;;;;2.70;1.20;;;14.70;99.90;;;;;;4590141;19;20027;-20
2022/05/22 08:49:14;;;;;;;2.50;1.10;;;14.80;99.90;;;;;;4591152;19;20013;-20
2022/05/22 08:50:45;;;;;;;1.77;1.00;;;14.80;99.90;;;;;;4589489;19;20010;-20
2022/05/22 08:52:29;;;;;;;1.23;1.02;;;14.90;99.90;;;;;;4589847;19;20074;-21
2022/05/22 08:54:25;;;;;;;2.63;1.10;;;14.90;99.90;;;;;;4590462;19;20018;-20
2022/05/22 08:59:53;;;;;;;2.00;1.27;;;14.80;99.90;;;;;;4589893;19;20026;-20
2022/05/22 09:01:33;;;;;;;2.53;1.03;;;14.70;99.90;;;;;;4591280;19;20010;-20